sensor_id;sensor_type;location;lat;lon;timestamp;P1;durP1;ratioP1;P2;durP2;ratioP2
11269;SDS011;5692;48.956;9.200;2023-02-01T00:01:54;77.55;;;73.82;;
11269;SDS011;5692;48.956;9.200;2023-02-01T00:04:21;82.30;;;78.30;;
11269;SDS011;5692;48.956;9.200;2023-02-01T00:06:47;91.45;;;87.05;;
11269;SDS011;5692;48.956;9.200;2023-02-01T00:09:13;90.82;;;86.43;;
11269;SDS011;5692;48.956;9.200;2023-02-01T00:11:39;91.30;;;86.90;;
11269;SDS011;5692;48.956;9.200;2023-02-01T00:14:05;91.20;;;86.80;;
11269;SDS011;5692;48.956;9.200;2023-02-01T00:16:31;88.80;;;84.50;;
11269;SDS011;5692;48.956;9.200;2023-02-01T00:18:59;84.03;;;79.97;;
11269;SDS011;5692;48.956;9.200;2023-02-01T00:21:25;85.15;;;81.05;;
11269;SDS011;5692;48.956;9.200;2023-02-01T00:23:52;81.47;;;77.57;;
11269;SDS011;5692;48.956;9.200;2023-02-01T00:26:35;93.45;;;88.95;;
11269;SDS011;5692;48.956;9.200;2023-02-01T00:29:02;87.45;;;83.25;;
11269;SDS011;5692;48.956;9.200;2023-02-01T00:31:28;88.80;;;84.50;;
11269;SDS011;5692;48.956;9.200;2023-02-01T00:33:54;78.70;;;74.90;;
11269;SDS011;5692;48.956;9.200;2023-02-01T00:36:20;78.63;;;74.82;;
11269;SDS011;5692;48.956;9.200;2023-02-01T00:38:47;85.90;;;81.78;;
11269;SDS011;5692;48.956;9.200;2023-02-01T00:41:16;94.03;;;89.53;;
11269;SDS011;5692;48.956;9.200;2023-02-01T00:43:43;93.43;;;88.93;;
11269;SDS011;5692;48.956;9.200;2023-02-01T00:46:10;91.95;;;87.55;;
11269;SDS011;5692;48.956;9.200;2023-02-01T00:48:36;89.45;;;85.15;;
11269;SDS011;5692;48.956;9.200;2023-02-01T00:51:03;87.82;;;83.63;;
11269;SDS011;5692;48.956;9.200;2023-02-01T00:53:30;81.70;;;77.80;;
11269;SDS011;5692;48.956;9.200;2023-02-01T00:55:56;86.80;;;82.60;;
11269;SDS011;5692;48.956;9.200;2023-02-01T00:58:23;81.63;;;77.70;;
11269;SDS011;5692;48.956;9.200;2023-02-01T01:00:56;87.88;;;83.65;;
11269;SDS011;5692;48.956;9.200;2023-02-01T01:03:22;85.80;;;81.70;;
11269;SDS011;5692;48.956;9.200;2023-02-01T01:05:48;88.40;;;84.13;;
11269;SDS011;5692;48.956;9.200;2023-02-01T01:08:15;82.95;;;78.95;;
11269;SDS011;5692;48.956;9.200;2023-02-01T01:10:41;88.05;;;83.80;;
11269;SDS011;5692;48.956;9.200;2023-02-01T01:13:08;90.65;;;86.28;;
11269;SDS011;5692;48.956;9.200;2023-02-01T01:15:38;89.35;;;85.05;;
11269;SDS011;5692;48.956;9.200;2023-02-01T01:18:04;88.55;;;84.25;;
11269;SDS011;5692;48.956;9.200;2023-02-01T01:20:30;90.63;;;86.22;;
11269;SDS011;5692;48.956;9.200;2023-02-01T01:22:56;82.68;;;78.68;;
11269;SDS011;5692;48.956;9.200;2023-02-01T01:25:22;86.13;;;81.97;;
11269;SDS011;5692;48.956;9.200;2023-02-01T01:27:48;90.53;;;86.18;;
11269;SDS011;5692;48.956;9.200;2023-02-01T01:30:14;94.22;;;89.72;;
11269;SDS011;5692;48.956;9.200;2023-02-01T01:32:41;90.82;;;86.43;;
11269;SDS011;5692;48.956;9.200;2023-02-01T01:35:07;99.22;;;94.45;;
11269;SDS011;5692;48.956;9.200;2023-02-01T01:37:33;90.03;;;85.72;;
11269;SDS011;5692;48.956;9.200;2023-02-01T01:40:00;84.55;;;80.47;;
11269;SDS011;5692;48.956;9.200;2023-02-01T01:42:26;83.35;;;79.35;;
11269;SDS011;5692;48.956;9.200;2023-02-01T01:45:00;90.82;;;86.43;;
11269;SDS011;5692;48.956;9.200;2023-02-01T01:47:48;85.55;;;81.45;;
11269;SDS011;5692;48.956;9.200;2023-02-01T01:50:14;84.18;;;80.13;;
11269;SDS011;5692;48.956;9.200;2023-02-01T01:52:42;87.38;;;83.18;;
11269;SDS011;5692;48.956;9.200;2023-02-01T01:55:09;91.03;;;86.63;;
11269;SDS011;5692;48.956;9.200;2023-02-01T01:57:36;92.82;;;88.35;;
11269;SDS011;5692;48.956;9.200;2023-02-01T02:00:05;101.10;;;96.20;;
11269;SDS011;5692;48.956;9.200;2023-02-01T02:02:33;95.78;;;91.18;;
11269;SDS011;5692;48.956;9.200;2023-02-01T02:04:59;98.63;;;93.88;;
11269;SDS011;5692;48.956;9.200;2023-02-01T02:07:26;87.53;;;83.32;;
11269;SDS011;5692;48.956;9.200;2023-02-01T02:09:54;97.55;;;92.85;;
11269;SDS011;5692;48.956;9.200;2023-02-01T02:12:20;91.75;;;87.35;;
11269;SDS011;5692;48.956;9.200;2023-02-01T02:14:46;95.25;;;90.65;;
11269;SDS011;5692;48.956;9.200;2023-02-01T02:17:16;90.70;;;86.32;;
11269;SDS011;5692;48.956;9.200;2023-02-01T02:20:08;85.45;;;81.35;;
11269;SDS011;5692;48.956;9.200;2023-02-01T02:22:48;89.40;;;85.10;;
11269;SDS011;5692;48.956;9.200;2023-02-01T02:35:40;81.18;;;77.28;;
11269;SDS011;5692;48.956;9.200;2023-02-01T02:41:40;86.03;;;81.88;;
11269;SDS011;5692;48.956;9.200;2023-02-01T02:43:45;80.78;;;76.88;;
11269;SDS011;5692;48.956;9.200;2023-02-01T02:46:40;87.60;;;83.40;;
11269;SDS011;5692;48.956;9.200;2023-02-01T02:49:29;91.47;;;87.07;;
11269;SDS011;5692;48.956;9.200;2023-02-01T02:52:02;81.15;;;77.25;;
11269;SDS011;5692;48.956;9.200;2023-02-01T02:54:49;81.57;;;77.63;;
11269;SDS011;5692;48.956;9.200;2023-02-01T02:57:38;82.35;;;78.35;;
11269;SDS011;5692;48.956;9.200;2023-02-01T03:00:27;73.35;;;69.80;;
11269;SDS011;5692;48.956;9.200;2023-02-01T03:03:12;83.35;;;79.35;;
11269;SDS011;5692;48.956;9.200;2023-02-01T03:05:56;89.30;;;85.00;;
11269;SDS011;5692;48.956;9.200;2023-02-01T03:08:29;84.13;;;80.05;;
11269;SDS011;5692;48.956;9.200;2023-02-01T03:16:07;85.00;;;80.90;;
11269;SDS011;5692;48.956;9.200;2023-02-01T03:21:12;87.65;;;83.43;;
11269;SDS011;5692;48.956;9.200;2023-02-01T03:23:39;82.85;;;78.85;;
11269;SDS011;5692;48.956;9.200;2023-02-01T03:26:09;85.75;;;81.63;;
11269;SDS011;5692;48.956;9.200;2023-02-01T03:28:36;84.72;;;80.63;;
11269;SDS011;5692;48.956;9.200;2023-02-01T03:31:08;86.38;;;82.18;;
11269;SDS011;5692;48.956;9.200;2023-02-01T03:33:34;84.93;;;80.82;;
11269;SDS011;5692;48.956;9.200;2023-02-01T03:43:49;85.63;;;81.53;;
11269;SDS011;5692;48.956;9.200;2023-02-01T03:46:25;82.43;;;78.45;;
11269;SDS011;5692;48.956;9.200;2023-02-01T03:48:57;80.15;;;76.25;;
11269;SDS011;5692;48.956;9.200;2023-02-01T03:51:24;77.03;;;73.32;;
11269;SDS011;5692;48.956;9.200;2023-02-01T03:53:50;82.80;;;78.80;;
11269;SDS011;5692;48.956;9.200;2023-02-01T03:56:17;81.10;;;77.20;;
11269;SDS011;5692;48.956;9.200;2023-02-01T03:58:44;86.88;;;82.68;;
11269;SDS011;5692;48.956;9.200;2023-02-01T04:01:23;86.53;;;82.32;;
11269;SDS011;5692;48.956;9.200;2023-02-01T04:03:49;92.30;;;87.85;;
11269;SDS011;5692;48.956;9.200;2023-02-01T04:06:16;93.43;;;88.93;;
11269;SDS011;5692;48.956;9.200;2023-02-01T04:08:42;88.35;;;84.07;;
11269;SDS011;5692;48.956;9.200;2023-02-01T04:11:08;88.68;;;84.38;;
11269;SDS011;5692;48.956;9.200;2023-02-01T04:13:37;82.15;;;78.15;;
11269;SDS011;5692;48.956;9.200;2023-02-01T04:16:03;81.65;;;77.75;;
11269;SDS011;5692;48.956;9.200;2023-02-01T04:18:29;83.70;;;79.70;;
11269;SDS011;5692;48.956;9.200;2023-02-01T04:20:55;88.20;;;83.95;;
11269;SDS011;5692;48.956;9.200;2023-02-01T04:23:21;88.22;;;83.97;;
11269;SDS011;5692;48.956;9.200;2023-02-01T04:25:47;88.78;;;84.47;;
11269;SDS011;5692;48.956;9.200;2023-02-01T04:28:13;88.20;;;83.95;;
11269;SDS011;5692;48.956;9.200;2023-02-01T04:30:39;84.05;;;80.00;;
11269;SDS011;5692;48.956;9.200;2023-02-01T04:33:05;88.45;;;84.15;;
11269;SDS011;5692;48.956;9.200;2023-02-01T04:35:31;82.38;;;78.38;;
11269;SDS011;5692;48.956;9.200;2023-02-01T04:37:57;82.60;;;78.60;;
11269;SDS011;5692;48.956;9.200;2023-02-01T04:40:23;80.38;;;76.47;;
11269;SDS011;5692;48.956;9.200;2023-02-01T04:42:49;82.57;;;78.57;;
11269;SDS011;5692;48.956;9.200;2023-02-01T04:45:15;83.30;;;79.30;;
11269;SDS011;5692;48.956;9.200;2023-02-01T04:47:41;80.82;;;76.93;;
11269;SDS011;5692;48.956;9.200;2023-02-01T04:50:08;79.45;;;75.63;;
11269;SDS011;5692;48.956;9.200;2023-02-01T04:52:35;76.68;;;72.97;;
11269;SDS011;5692;48.956;9.200;2023-02-01T04:55:01;77.75;;;74.00;;
11269;SDS011;5692;48.956;9.200;2023-02-01T04:57:28;83.88;;;79.82;;
11269;SDS011;5692;48.956;9.200;2023-02-01T04:59:54;74.72;;;71.13;;
11269;SDS011;5692;48.956;9.200;2023-02-01T05:02:20;79.70;;;75.88;;
11269;SDS011;5692;48.956;9.200;2023-02-01T05:04:46;81.10;;;77.20;;
11269;SDS011;5692;48.956;9.200;2023-02-01T05:07:12;82.28;;;78.28;;
11269;SDS011;5692;48.956;9.200;2023-02-01T05:09:38;79.22;;;75.40;;
11269;SDS011;5692;48.956;9.200;2023-02-01T05:12:04;80.28;;;76.38;;
11269;SDS011;5692;48.956;9.200;2023-02-01T05:14:49;84.25;;;80.20;;
11269;SDS011;5692;48.956;9.200;2023-02-01T05:17:15;88.88;;;84.57;;
11269;SDS011;5692;48.956;9.200;2023-02-01T05:19:41;84.20;;;80.15;;
11269;SDS011;5692;48.956;9.200;2023-02-01T05:22:07;86.53;;;82.32;;
11269;SDS011;5692;48.956;9.200;2023-02-01T05:24:33;87.28;;;83.07;;
11269;SDS011;5692;48.956;9.200;2023-02-01T05:27:02;85.80;;;81.68;;
11269;SDS011;5692;48.956;9.200;2023-02-01T05:29:28;79.72;;;75.88;;
11269;SDS011;5692;48.956;9.200;2023-02-01T05:31:54;85.68;;;81.57;;
11269;SDS011;5692;48.956;9.200;2023-02-01T05:34:20;90.30;;;85.95;;
11269;SDS011;5692;48.956;9.200;2023-02-01T05:36:46;75.22;;;71.63;;
11269;SDS011;5692;48.956;9.200;2023-02-01T05:39:12;80.65;;;76.78;;
11269;SDS011;5692;48.956;9.200;2023-02-01T05:41:38;81.00;;;77.10;;
11269;SDS011;5692;48.956;9.200;2023-02-01T05:44:04;79.60;;;75.78;;
11269;SDS011;5692;48.956;9.200;2023-02-01T05:46:32;78.07;;;74.28;;
11269;SDS011;5692;48.956;9.200;2023-02-01T05:48:58;81.43;;;77.53;;
11269;SDS011;5692;48.956;9.200;2023-02-01T05:51:24;87.10;;;82.90;;
11269;SDS011;5692;48.956;9.200;2023-02-01T05:53:50;76.80;;;73.10;;
11269;SDS011;5692;48.956;9.200;2023-02-01T05:56:16;78.47;;;74.68;;
11269;SDS011;5692;48.956;9.200;2023-02-01T05:58:42;83.72;;;79.72;;
11269;SDS011;5692;48.956;9.200;2023-02-01T06:01:08;81.43;;;77.53;;
11269;SDS011;5692;48.956;9.200;2023-02-01T06:03:34;78.05;;;74.28;;
11269;SDS011;5692;48.956;9.200;2023-02-01T06:06:00;79.20;;;75.40;;
11269;SDS011;5692;48.956;9.200;2023-02-01T06:08:27;80.90;;;77.00;;
11269;SDS011;5692;48.956;9.200;2023-02-01T06:11:03;74.25;;;70.65;;
11269;SDS011;5692;48.956;9.200;2023-02-01T06:13:29;83.65;;;79.63;;
11269;SDS011;5692;48.956;9.200;2023-02-01T06:15:55;76.63;;;72.93;;
11269;SDS011;5692;48.956;9.200;2023-02-01T06:18:22;76.57;;;72.88;;
11269;SDS011;5692;48.956;9.200;2023-02-01T06:20:55;78.43;;;74.63;;
11269;SDS011;5692;48.956;9.200;2023-02-01T06:23:21;70.07;;;66.68;;
11269;SDS011;5692;48.956;9.200;2023-02-01T06:25:52;70.78;;;67.38;;
11269;SDS011;5692;48.956;9.200;2023-02-01T06:28:18;75.28;;;71.63;;
11269;SDS011;5692;48.956;9.200;2023-02-01T06:30:44;72.90;;;69.40;;
11269;SDS011;5692;48.956;9.200;2023-02-01T06:33:12;76.15;;;72.45;;
11269;SDS011;5692;48.956;9.200;2023-02-01T06:35:39;74.22;;;70.63;;
11269;SDS011;5692;48.956;9.200;2023-02-01T06:38:07;73.38;;;69.82;;
11269;SDS011;5692;48.956;9.200;2023-02-01T06:40:33;74.07;;;70.47;;
11269;SDS011;5692;48.956;9.200;2023-02-01T06:43:00;71.90;;;68.40;;
11269;SDS011;5692;48.956;9.200;2023-02-01T06:45:26;77.85;;;74.07;;
11269;SDS011;5692;48.956;9.200;2023-02-01T06:47:52;79.38;;;75.57;;
11269;SDS011;5692;48.956;9.200;2023-02-01T06:50:18;76.20;;;72.50;;
11269;SDS011;5692;48.956;9.200;2023-02-01T06:52:44;71.75;;;68.25;;
11269;SDS011;5692;48.956;9.200;2023-02-01T06:55:10;77.95;;;74.15;;
11269;SDS011;5692;48.956;9.200;2023-02-01T06:57:36;76.28;;;72.57;;
11269;SDS011;5692;48.956;9.200;2023-02-01T07:00:05;82.25;;;78.30;;
11269;SDS011;5692;48.956;9.200;2023-02-01T07:02:31;79.32;;;75.50;;
11269;SDS011;5692;48.956;9.200;2023-02-01T07:04:57;73.80;;;70.20;;
11269;SDS011;5692;48.956;9.200;2023-02-01T07:07:23;71.95;;;68.45;;
11269;SDS011;5692;48.956;9.200;2023-02-01T07:09:49;73.95;;;70.38;;
11269;SDS011;5692;48.956;9.200;2023-02-01T07:12:15;71.70;;;68.20;;
11269;SDS011;5692;48.956;9.200;2023-02-01T07:14:41;73.32;;;69.82;;
11269;SDS011;5692;48.956;9.200;2023-02-01T07:17:07;74.85;;;71.25;;
11269;SDS011;5692;48.956;9.200;2023-02-01T07:19:33;83.75;;;79.72;;
11269;SDS011;5692;48.956;9.200;2023-02-01T07:21:59;85.20;;;81.10;;
11269;SDS011;5692;48.956;9.200;2023-02-01T07:24:25;72.53;;;69.03;;
11269;SDS011;5692;48.956;9.200;2023-02-01T07:26:51;81.70;;;77.80;;
11269;SDS011;5692;48.956;9.200;2023-02-01T07:29:18;75.75;;;72.05;;
11269;SDS011;5692;48.956;9.200;2023-02-01T07:31:44;84.68;;;80.57;;
11269;SDS011;5692;48.956;9.200;2023-02-01T07:34:10;77.70;;;73.95;;
11269;SDS011;5692;48.956;9.200;2023-02-01T07:36:36;89.60;;;85.30;;
11269;SDS011;5692;48.956;9.200;2023-02-01T07:39:03;92.50;;;88.05;;
11269;SDS011;5692;48.956;9.200;2023-02-01T07:41:29;92.93;;;88.45;;
11269;SDS011;5692;48.956;9.200;2023-02-01T07:43:55;83.85;;;79.80;;
11269;SDS011;5692;48.956;9.200;2023-02-01T07:46:22;87.95;;;83.72;;
11269;SDS011;5692;48.956;9.200;2023-02-01T07:48:48;86.82;;;82.63;;
11269;SDS011;5692;48.956;9.200;2023-02-01T07:51:15;93.43;;;88.93;;
11269;SDS011;5692;48.956;9.200;2023-02-01T07:53:41;87.30;;;83.10;;
11269;SDS011;5692;48.956;9.200;2023-02-01T07:56:26;83.72;;;79.70;;
11269;SDS011;5692;48.956;9.200;2023-02-01T07:58:52;86.13;;;81.97;;
11269;SDS011;5692;48.956;9.200;2023-02-01T08:01:22;80.10;;;76.20;;
11269;SDS011;5692;48.956;9.200;2023-02-01T08:06:17;74.80;;;71.18;;
11269;SDS011;5692;48.956;9.200;2023-02-01T08:08:44;75.30;;;71.70;;
11269;SDS011;5692;48.956;9.200;2023-02-01T08:11:12;71.45;;;67.97;;
11269;SDS011;5692;48.956;9.200;2023-02-01T08:13:38;76.97;;;73.28;;
11269;SDS011;5692;48.956;9.200;2023-02-01T08:16:05;81.72;;;77.78;;
11269;SDS011;5692;48.956;9.200;2023-02-01T08:18:33;74.10;;;70.50;;
11269;SDS011;5692;48.956;9.200;2023-02-01T08:21:05;80.18;;;76.28;;
11269;SDS011;5692;48.956;9.200;2023-02-01T08:23:32;78.43;;;74.63;;
11269;SDS011;5692;48.956;9.200;2023-02-01T08:26:34;79.55;;;75.75;;
11269;SDS011;5692;48.956;9.200;2023-02-01T08:28:54;72.45;;;68.95;;
11269;SDS011;5692;48.956;9.200;2023-02-01T08:31:21;71.40;;;67.95;;
11269;SDS011;5692;48.956;9.200;2023-02-01T08:33:48;78.68;;;74.88;;
11269;SDS011;5692;48.956;9.200;2023-02-01T08:36:15;75.97;;;72.28;;
11269;SDS011;5692;48.956;9.200;2023-02-01T08:38:41;79.65;;;75.82;;
11269;SDS011;5692;48.956;9.200;2023-02-01T08:41:14;82.20;;;78.22;;
11269;SDS011;5692;48.956;9.200;2023-02-01T08:43:40;74.45;;;70.85;;
11269;SDS011;5692;48.956;9.200;2023-02-01T08:46:06;77.72;;;73.97;;
11269;SDS011;5692;48.956;9.200;2023-02-01T08:48:33;69.50;;;66.13;;
11269;SDS011;5692;48.956;9.200;2023-02-01T08:51:06;84.47;;;80.40;;
11269;SDS011;5692;48.956;9.200;2023-02-01T08:53:33;82.65;;;78.65;;
11269;SDS011;5692;48.956;9.200;2023-02-01T08:55:59;85.40;;;81.30;;
11269;SDS011;5692;48.956;9.200;2023-02-01T08:58:25;79.20;;;75.40;;
11269;SDS011;5692;48.956;9.200;2023-02-01T09:00:51;82.03;;;78.05;;
11269;SDS011;5692;48.956;9.200;2023-02-01T09:03:18;92.05;;;87.65;;
11269;SDS011;5692;48.956;9.200;2023-02-01T09:05:44;84.43;;;80.32;;
11269;SDS011;5692;48.956;9.200;2023-02-01T09:08:10;85.85;;;81.72;;
11269;SDS011;5692;48.956;9.200;2023-02-01T09:10:39;91.00;;;86.60;;
11269;SDS011;5692;48.956;9.200;2023-02-01T09:13:06;84.93;;;80.82;;
11269;SDS011;5692;48.956;9.200;2023-02-01T09:15:32;86.85;;;82.65;;
11269;SDS011;5692;48.956;9.200;2023-02-01T09:17:58;86.50;;;82.30;;
11269;SDS011;5692;48.956;9.200;2023-02-01T09:20:25;80.22;;;76.32;;
11269;SDS011;5692;48.956;9.200;2023-02-01T09:22:51;78.28;;;74.47;;
11269;SDS011;5692;48.956;9.200;2023-02-01T09:25:17;87.53;;;83.32;;
11269;SDS011;5692;48.956;9.200;2023-02-01T09:27:44;92.00;;;87.60;;
11269;SDS011;5692;48.956;9.200;2023-02-01T09:30:10;88.45;;;84.15;;
11269;SDS011;5692;48.956;9.200;2023-02-01T09:32:36;88.15;;;83.93;;
11269;SDS011;5692;48.956;9.200;2023-02-01T09:35:02;91.80;;;87.40;;
11269;SDS011;5692;48.956;9.200;2023-02-01T09:37:31;95.45;;;90.85;;
11269;SDS011;5692;48.956;9.200;2023-02-01T09:39:57;92.88;;;88.38;;
11269;SDS011;5692;48.956;9.200;2023-02-01T09:42:43;91.65;;;87.25;;
11269;SDS011;5692;48.956;9.200;2023-02-01T09:47:40;89.57;;;85.25;;
11269;SDS011;5692;48.956;9.200;2023-02-01T09:50:13;96.47;;;91.82;;
11269;SDS011;5692;48.956;9.200;2023-02-01T09:53:01;93.13;;;88.63;;
11269;SDS011;5692;48.956;9.200;2023-02-01T09:55:32;106.70;;;101.57;;
11269;SDS011;5692;48.956;9.200;2023-02-01T09:58:04;106.55;;;101.45;;
11269;SDS011;5692;48.956;9.200;2023-02-01T10:00:35;97.82;;;93.13;;
11269;SDS011;5692;48.956;9.200;2023-02-01T10:03:02;109.20;;;103.95;;
11269;SDS011;5692;48.956;9.200;2023-02-01T10:05:38;105.25;;;100.18;;
11269;SDS011;5692;48.956;9.200;2023-02-01T10:10:55;107.03;;;101.88;;
11269;SDS011;5692;48.956;9.200;2023-02-01T10:13:31;109.25;;;104.00;;
11269;SDS011;5692;48.956;9.200;2023-02-01T10:16:16;108.70;;;103.50;;
11269;SDS011;5692;48.956;9.200;2023-02-01T10:18:47;102.53;;;97.63;;
11269;SDS011;5692;48.956;9.200;2023-02-01T10:21:32;116.07;;;110.47;;
11269;SDS011;5692;48.956;9.200;2023-02-01T10:26:51;112.45;;;107.05;;
11269;SDS011;5692;48.956;9.200;2023-02-01T10:29:20;120.82;;;115.00;;
11269;SDS011;5692;48.956;9.200;2023-02-01T10:31:46;108.57;;;103.35;;
11269;SDS011;5692;48.956;9.200;2023-02-01T10:34:20;116.55;;;110.95;;
11269;SDS011;5692;48.956;9.200;2023-02-01T10:39:31;110.72;;;105.43;;
11269;SDS011;5692;48.956;9.200;2023-02-01T10:41:57;104.93;;;99.90;;
11269;SDS011;5692;48.956;9.200;2023-02-01T10:44:24;106.43;;;101.30;;
11269;SDS011;5692;48.956;9.200;2023-02-01T10:46:52;107.80;;;102.60;;
11269;SDS011;5692;48.956;9.200;2023-02-01T10:49:19;106.90;;;101.80;;
11269;SDS011;5692;48.956;9.200;2023-02-01T10:51:52;108.53;;;103.30;;
11269;SDS011;5692;48.956;9.200;2023-02-01T10:54:20;104.18;;;99.18;;
11269;SDS011;5692;48.956;9.200;2023-02-01T10:56:48;111.38;;;106.03;;
11269;SDS011;5692;48.956;9.200;2023-02-01T10:59:18;99.22;;;94.43;;
11269;SDS011;5692;48.956;9.200;2023-02-01T11:01:45;100.75;;;95.90;;
11269;SDS011;5692;48.956;9.200;2023-02-01T11:04:16;107.20;;;102.03;;
11269;SDS011;5692;48.956;9.200;2023-02-01T11:06:46;101.97;;;97.07;;
11269;SDS011;5692;48.956;9.200;2023-02-01T11:09:31;96.85;;;92.18;;
11269;SDS011;5692;48.956;9.200;2023-02-01T11:11:58;113.25;;;107.80;;
11269;SDS011;5692;48.956;9.200;2023-02-01T11:17:03;103.28;;;98.28;;
11269;SDS011;5692;48.956;9.200;2023-02-01T11:19:45;103.63;;;98.65;;
11269;SDS011;5692;48.956;9.200;2023-02-01T11:22:11;109.20;;;103.95;;
11269;SDS011;5692;48.956;9.200;2023-02-01T11:24:38;101.43;;;96.53;;
11269;SDS011;5692;48.956;9.200;2023-02-01T11:27:05;107.28;;;102.13;;
11269;SDS011;5692;48.956;9.200;2023-02-01T11:29:35;111.25;;;105.93;;
11269;SDS011;5692;48.956;9.200;2023-02-01T11:32:02;106.15;;;101.05;;
11269;SDS011;5692;48.956;9.200;2023-02-01T11:34:39;119.50;;;113.80;;
11269;SDS011;5692;48.956;9.200;2023-02-01T11:37:06;100.53;;;95.70;;
11269;SDS011;5692;48.956;9.200;2023-02-01T11:39:40;98.15;;;93.43;;
11269;SDS011;5692;48.956;9.200;2023-02-01T11:42:14;102.75;;;97.82;;
11269;SDS011;5692;48.956;9.200;2023-02-01T11:44:41;96.88;;;92.18;;
11269;SDS011;5692;48.956;9.200;2023-02-01T11:49:46;107.15;;;102.00;;
11269;SDS011;5692;48.956;9.200;2023-02-01T12:02:33;112.10;;;106.70;;
11269;SDS011;5692;48.956;9.200;2023-02-01T12:07:50;115.60;;;110.03;;
11269;SDS011;5692;48.956;9.200;2023-02-01T12:21:04;101.80;;;96.90;;
11269;SDS011;5692;48.956;9.200;2023-02-01T12:23:46;105.07;;;100.03;;
11269;SDS011;5692;48.956;9.200;2023-02-01T12:26:22;106.65;;;101.55;;
11269;SDS011;5692;48.956;9.200;2023-02-01T12:31:38;99.95;;;95.15;;
11269;SDS011;5692;48.956;9.200;2023-02-01T12:39:24;103.85;;;98.85;;
11269;SDS011;5692;48.956;9.200;2023-02-01T12:42:13;100.70;;;95.85;;
11269;SDS011;5692;48.956;9.200;2023-02-01T12:44:55;99.90;;;95.10;;
11269;SDS011;5692;48.956;9.200;2023-02-01T12:47:25;103.88;;;98.88;;
11269;SDS011;5692;48.956;9.200;2023-02-01T12:52:43;103.75;;;98.75;;
11269;SDS011;5692;48.956;9.200;2023-02-01T12:55:24;101.50;;;96.60;;
11269;SDS011;5692;48.956;9.200;2023-02-01T12:58:03;116.20;;;110.60;;
11269;SDS011;5692;48.956;9.200;2023-02-01T13:00:51;113.22;;;107.80;;
11269;SDS011;5692;48.956;9.200;2023-02-01T13:03:37;109.30;;;104.03;;
11269;SDS011;5692;48.956;9.200;2023-02-01T13:16:28;113.90;;;108.40;;
11269;SDS011;5692;48.956;9.200;2023-02-01T13:18:59;124.75;;;118.75;;
11269;SDS011;5692;48.956;9.200;2023-02-01T13:21:29;115.43;;;109.90;;
11269;SDS011;5692;48.956;9.200;2023-02-01T13:23:57;113.57;;;108.13;;
11269;SDS011;5692;48.956;9.200;2023-02-01T13:26:23;109.55;;;104.30;;
11269;SDS011;5692;48.956;9.200;2023-02-01T13:28:53;114.25;;;108.75;;
11269;SDS011;5692;48.956;9.200;2023-02-01T13:44:21;108.07;;;102.88;;
11269;SDS011;5692;48.956;9.200;2023-02-01T13:46:49;109.95;;;104.65;;
11269;SDS011;5692;48.956;9.200;2023-02-01T13:49:18;113.13;;;107.70;;
11269;SDS011;5692;48.956;9.200;2023-02-01T13:51:46;116.55;;;110.95;;
11269;SDS011;5692;48.956;9.200;2023-02-01T13:56:58;120.07;;;114.28;;
11269;SDS011;5692;48.956;9.200;2023-02-01T13:59:49;108.40;;;103.20;;
11269;SDS011;5692;48.956;9.200;2023-02-01T14:04:58;110.15;;;104.85;;
11269;SDS011;5692;48.956;9.200;2023-02-01T14:07:25;113.65;;;108.15;;
11269;SDS011;5692;48.956;9.200;2023-02-01T14:09:51;123.50;;;117.60;;
11269;SDS011;5692;48.956;9.200;2023-02-01T14:15:19;105.45;;;100.38;;
11269;SDS011;5692;48.956;9.200;2023-02-01T14:17:47;119.90;;;114.13;;
11269;SDS011;5692;48.956;9.200;2023-02-01T14:23:02;108.78;;;103.57;;
11269;SDS011;5692;48.956;9.200;2023-02-01T14:25:34;108.22;;;103.03;;
11269;SDS011;5692;48.956;9.200;2023-02-01T14:28:00;110.00;;;104.70;;
11269;SDS011;5692;48.956;9.200;2023-02-01T14:30:27;104.90;;;99.85;;
11269;SDS011;5692;48.956;9.200;2023-02-01T14:32:53;103.47;;;98.47;;
11269;SDS011;5692;48.956;9.200;2023-02-01T14:35:20;100.63;;;95.80;;
11269;SDS011;5692;48.956;9.200;2023-02-01T14:37:46;106.95;;;101.85;;
11269;SDS011;5692;48.956;9.200;2023-02-01T14:40:19;102.72;;;97.80;;
11269;SDS011;5692;48.956;9.200;2023-02-01T14:42:49;108.03;;;102.82;;
11269;SDS011;5692;48.956;9.200;2023-02-01T14:52:46;97.18;;;92.47;;
11269;SDS011;5692;48.956;9.200;2023-02-01T14:55:14;82.20;;;78.20;;
11269;SDS011;5692;48.956;9.200;2023-02-01T14:57:41;94.78;;;90.20;;
11269;SDS011;5692;48.956;9.200;2023-02-01T15:00:43;93.60;;;89.10;;
11269;SDS011;5692;48.956;9.200;2023-02-01T15:05:59;93.07;;;88.57;;
11269;SDS011;5692;48.956;9.200;2023-02-01T15:08:30;98.15;;;93.45;;
11269;SDS011;5692;48.956;9.200;2023-02-01T15:10:57;95.70;;;91.10;;
11269;SDS011;5692;48.956;9.200;2023-02-01T15:13:25;91.53;;;87.10;;
11269;SDS011;5692;48.956;9.200;2023-02-01T15:18:27;103.00;;;98.05;;
11269;SDS011;5692;48.956;9.200;2023-02-01T15:20:57;101.60;;;96.70;;
11269;SDS011;5692;48.956;9.200;2023-02-01T15:23:23;99.57;;;94.78;;
11269;SDS011;5692;48.956;9.200;2023-02-01T15:25:50;97.78;;;93.07;;
11269;SDS011;5692;48.956;9.200;2023-02-01T15:28:16;96.78;;;92.10;;
11269;SDS011;5692;48.956;9.200;2023-02-01T15:30:56;104.30;;;99.30;;
11269;SDS011;5692;48.956;9.200;2023-02-01T15:33:22;102.90;;;97.93;;
11269;SDS011;5692;48.956;9.200;2023-02-01T15:35:55;109.85;;;104.57;;
11269;SDS011;5692;48.956;9.200;2023-02-01T15:40:57;106.13;;;101.03;;
11269;SDS011;5692;48.956;9.200;2023-02-01T15:43:24;107.57;;;102.40;;
11269;SDS011;5692;48.956;9.200;2023-02-01T15:45:51;99.75;;;94.93;;
11269;SDS011;5692;48.956;9.200;2023-02-01T15:48:21;110.00;;;104.72;;
11269;SDS011;5692;48.956;9.200;2023-02-01T15:50:48;107.95;;;102.75;;
11269;SDS011;5692;48.956;9.200;2023-02-01T15:53:19;117.53;;;111.90;;
11269;SDS011;5692;48.956;9.200;2023-02-01T15:55:46;106.18;;;101.07;;
11269;SDS011;5692;48.956;9.200;2023-02-01T15:58:20;103.80;;;98.80;;
11269;SDS011;5692;48.956;9.200;2023-02-01T16:00:47;113.70;;;108.25;;
11269;SDS011;5692;48.956;9.200;2023-02-01T16:06:28;102.97;;;98.03;;
11269;SDS011;5692;48.956;9.200;2023-02-01T16:08:59;105.82;;;100.75;;
11269;SDS011;5692;48.956;9.200;2023-02-01T16:13:53;102.50;;;97.57;;
11269;SDS011;5692;48.956;9.200;2023-02-01T16:16:19;109.25;;;103.97;;
11269;SDS011;5692;48.956;9.200;2023-02-01T16:18:45;99.25;;;94.47;;
11269;SDS011;5692;48.956;9.200;2023-02-01T16:21:11;98.18;;;93.47;;
11269;SDS011;5692;48.956;9.200;2023-02-01T16:23:37;103.25;;;98.30;;
11269;SDS011;5692;48.956;9.200;2023-02-01T16:26:03;98.45;;;93.75;;
11269;SDS011;5692;48.956;9.200;2023-02-01T16:28:30;105.57;;;100.47;;
11269;SDS011;5692;48.956;9.200;2023-02-01T16:30:56;97.55;;;92.85;;
11269;SDS011;5692;48.956;9.200;2023-02-01T16:33:23;102.50;;;97.60;;
11269;SDS011;5692;48.956;9.200;2023-02-01T16:35:49;110.00;;;104.70;;
11269;SDS011;5692;48.956;9.200;2023-02-01T16:38:16;99.20;;;94.40;;
11269;SDS011;5692;48.956;9.200;2023-02-01T16:40:44;103.60;;;98.60;;
11269;SDS011;5692;48.956;9.200;2023-02-01T16:43:14;106.43;;;101.32;;
11269;SDS011;5692;48.956;9.200;2023-02-01T16:45:40;98.05;;;93.35;;
11269;SDS011;5692;48.956;9.200;2023-02-01T16:48:10;96.70;;;92.05;;
11269;SDS011;5692;48.956;9.200;2023-02-01T16:50:42;99.97;;;95.18;;
11269;SDS011;5692;48.956;9.200;2023-02-01T16:53:08;94.20;;;89.65;;
11269;SDS011;5692;48.956;9.200;2023-02-01T16:55:36;93.03;;;88.53;;
11269;SDS011;5692;48.956;9.200;2023-02-01T16:58:02;99.15;;;94.35;;